Time;durP1;ratioP1;P1;durP2;ratioP2;P2;SDS_P1;SDS_P2;PMS_P1;PMS_P2;Temp;Humidity;BMP_temperature;BMP_pressure;BME280_temperature;BME280_humidity;BME280_pressure;Samples;Min_cycle;Max_cycle;Signal;HPM_P1;HPM_P2
2023/09/09 00:01:17;;;;;;;33.22;19.75;;;;;;;;;;8242339;28;20054;-89
2023/09/09 00:05:20;;;;;;;37.47;21.10;;;;;;;;;;8260629;28;20069;-89
2023/09/09 00:09:25;;;;;;;35.47;19.95;;;;;;;;;;8237623;28;20189;-91
2023/09/09 00:13:30;;;;;;;30.23;18.55;;;;;;;;;;8239356;28;20057;-89
2023/09/09 00:17:36;;;;;;;31.40;18.65;;;;;;;;;;8229479;28;20103;-90
2023/09/09 00:21:45;;;;;;;37.10;21.40;;;;;;;;;;8243679;28;20081;-89
2023/09/09 00:25:53;;;;;;;35.75;20.20;;;;;;;;;;8253934;28;20075;-91
2023/09/09 00:29:59;;;;;;;41.33;21.73;;;;;;;;;;8224454;28;20524;-90
2023/09/09 00:34:05;;;;;;;35.63;19.20;;;;;;;;;;8223568;28;20053;-90
2023/09/09 00:38:10;;;;;;;38.60;21.48;;;;;;;;;;8250133;28;20496;-92
2023/09/09 00:42:12;;;;;;;41.10;21.95;;;;;;;;;;8241793;28;20050;-90
2023/09/09 00:46:19;;;;;;;39.85;20.70;;;;;;;;;;8231462;28;20059;-94
2023/09/09 00:50:24;;;;;;;35.72;20.20;;;;;;;;;;8225420;28;20051;-94
2023/09/09 00:54:27;;;;;;;39.70;21.38;;;;;;;;;;8242459;28;20156;-92
2023/09/09 00:58:31;;;;;;;35.40;19.92;;;;;;;;;;8240712;28;20051;-90
2023/09/09 01:02:36;;;;;;;35.72;20.00;;;;;;;;;;8241634;28;20071;-93
2023/09/09 01:06:40;;;;;;;43.28;22.35;;;;;;;;;;8224761;28;20130;-90
2023/09/09 01:10:44;;;;;;;39.85;21.17;;;;;;;;;;8241828;28;20051;-89
2023/09/09 01:14:47;;;;;;;42.65;21.60;;;;;;;;;;8227187;28;20046;-90
2023/09/09 01:18:52;;;;;;;40.53;21.17;;;;;;;;;;8237107;28;20134;-91
2023/09/09 01:22:59;;;;;;;43.72;22.08;;;;;;;;;;8225203;28;20082;-89
2023/09/09 01:27:02;;;;;;;43.65;21.65;;;;;;;;;;8251227;28;20059;-89
2023/09/09 01:31:05;;;;;;;45.35;22.85;;;;;;;;;;8239255;28;20108;-91
2023/09/09 01:35:08;;;;;;;38.72;20.40;;;;;;;;;;8233344;28;20062;-91
2023/09/09 01:39:14;;;;;;;44.53;22.33;;;;;;;;;;8236896;28;20175;-89
2023/09/09 01:43:18;;;;;;;37.03;19.83;;;;;;;;;;8238294;28;20522;-90
2023/09/09 01:47:21;;;;;;;42.53;20.73;;;;;;;;;;8236949;28;20069;-90
2023/09/09 01:51:24;;;;;;;43.28;22.05;;;;;;;;;;8235523;28;20051;-90
2023/09/09 01:55:28;;;;;;;40.47;20.42;;;;;;;;;;8241960;28;20067;-94
2023/09/09 01:59:31;;;;;;;38.22;19.90;;;;;;;;;;8241609;28;20086;-91
2023/09/09 02:03:34;;;;;;;41.95;21.45;;;;;;;;;;8215024;28;20055;-90
2023/09/09 02:07:37;;;;;;;42.38;22.38;;;;;;;;;;8242423;28;20087;-95
2023/09/09 02:11:41;;;;;;;37.92;20.90;;;;;;;;;;8233623;28;20492;-94
2023/09/09 02:15:44;;;;;;;38.75;20.85;;;;;;;;;;8218936;28;20059;-90
2023/09/09 02:19:51;;;;;;;34.03;19.27;;;;;;;;;;8245939;28;20063;-92
2023/09/09 02:23:54;;;;;;;30.08;18.15;;;;;;;;;;8230598;28;20074;-94
2023/09/09 02:27:59;;;;;;;36.03;18.50;;;;;;;;;;8199459;28;20088;-94
2023/09/09 02:32:02;;;;;;;39.50;20.17;;;;;;;;;;8230473;28;20220;-90
2023/09/09 02:36:06;;;;;;;30.65;17.02;;;;;;;;;;8237428;28;20061;-95
2023/09/09 02:40:11;;;;;;;31.13;18.88;;;;;;;;;;8243311;28;20054;-91
2023/09/09 02:44:16;;;;;;;27.42;17.45;;;;;;;;;;8242265;28;20419;-94
2023/09/09 02:48:19;;;;;;;31.02;16.67;;;;;;;;;;8239128;28;20134;-91
2023/09/09 02:52:22;;;;;;;26.33;16.48;;;;;;;;;;8231704;28;20138;-93
2023/09/09 02:56:25;;;;;;;30.33;16.88;;;;;;;;;;8227213;28;20086;-93
2023/09/09 03:00:29;;;;;;;28.52;16.88;;;;;;;;;;8227436;28;20396;-95
2023/09/09 03:04:32;;;;;;;28.80;16.77;;;;;;;;;;8239011;28;20054;-92
2023/09/09 03:08:35;;;;;;;33.67;18.83;;;;;;;;;;8229180;28;20051;-92
2023/09/09 03:12:38;;;;;;;37.50;19.42;;;;;;;;;;8219236;28;20063;-93
2023/09/09 03:16:42;;;;;;;30.92;17.63;;;;;;;;;;8218587;28;20055;-95
2023/09/09 03:20:45;;;;;;;36.05;19.30;;;;;;;;;;8235379;28;20047;-91
2023/09/09 03:24:48;;;;;;;33.63;19.63;;;;;;;;;;8227043;28;20471;-91
2023/09/09 03:28:51;;;;;;;39.13;19.75;;;;;;;;;;8226528;28;20051;-94
2023/09/09 03:32:56;;;;;;;39.60;19.20;;;;;;;;;;8239201;28;20134;-95
2023/09/09 03:36:59;;;;;;;37.03;19.88;;;;;;;;;;8227732;28;20479;-90
2023/09/09 03:41:04;;;;;;;32.47;18.02;;;;;;;;;;8239984;28;20058;-90
2023/09/09 03:45:12;;;;;;;35.88;18.75;;;;;;;;;;8240118;28;20058;-92
2023/09/09 03:49:17;;;;;;;33.40;18.00;;;;;;;;;;8232856;28;20486;-94
2023/09/09 03:53:20;;;;;;;33.15;17.90;;;;;;;;;;8240539;28;20463;-94
2023/09/09 03:57:23;;;;;;;37.47;19.20;;;;;;;;;;8231064;28;20055;-89
2023/09/09 04:01:25;;;;;;;34.25;18.75;;;;;;;;;;8232113;28;20055;-94
2023/09/09 04:05:30;;;;;;;35.70;19.40;;;;;;;;;;8238459;28;20133;-95
2023/09/09 04:09:40;;;;;;;32.42;17.52;;;;;;;;;;8238197;28;20424;-91
2023/09/09 04:13:43;;;;;;;32.90;17.98;;;;;;;;;;8225716;28;20487;-93
2023/09/09 04:17:45;;;;;;;37.25;19.55;;;;;;;;;;8236419;28;20491;-90
2023/09/09 04:21:51;;;;;;;38.22;20.08;;;;;;;;;;8233835;28;20086;-94
2023/09/09 04:25:54;;;;;;;31.13;17.98;;;;;;;;;;8231485;28;20055;-92
2023/09/09 04:30:09;;;;;;;33.75;18.92;;;;;;;;;;8236587;28;20118;-95
2023/09/09 04:34:13;;;;;;;34.08;18.90;;;;;;;;;;8245237;28;20618;-91
2023/09/09 04:38:19;;;;;;;29.38;17.65;;;;;;;;;;8243481;28;20081;-93
2023/09/09 04:42:22;;;;;;;33.63;18.52;;;;;;;;;;8230620;28;20154;-91
2023/09/09 04:46:25;;;;;;;30.88;17.83;;;;;;;;;;8227303;28;20130;-95
2023/09/09 04:50:28;;;;;;;28.65;16.50;;;;;;;;;;8226152;28;20061;-92
2023/09/09 04:54:35;;;;;;;28.25;17.45;;;;;;;;;;8229419;28;20215;-95
2023/09/09 04:58:39;;;;;;;26.50;16.92;;;;;;;;;;8232749;28;20082;-90
2023/09/09 05:02:42;;;;;;;24.55;15.18;;;;;;;;;;8228369;28;20570;-91
2023/09/09 05:06:44;;;;;;;22.40;14.68;;;;;;;;;;8227791;28;20085;-91
2023/09/09 05:10:48;;;;;;;23.33;17.05;;;;;;;;;;8223081;28;20086;-92
2023/09/09 05:14:51;;;;;;;20.88;14.82;;;;;;;;;;8235836;28;20039;-95
2023/09/09 05:18:54;;;;;;;20.77;17.50;;;;;;;;;;8241290;28;20078;-91
2023/09/09 05:22:57;;;;;;;44.83;33.78;;;;;;;;;;8222597;28;20170;-96
2023/09/09 05:27:01;;;;;;;36.88;28.00;;;;;;;;;;8239207;28;20059;-90
2023/09/09 05:31:06;;;;;;;19.25;14.85;;;;;;;;;;8234878;28;20081;-95
2023/09/09 05:35:12;;;;;;;15.13;11.45;;;;;;;;;;8234518;28;20509;-95
2023/09/09 05:39:15;;;;;;;14.15;9.52;;;;;;;;;;8222575;28;20074;-92
2023/09/09 05:43:22;;;;;;;13.07;8.10;;;;;;;;;;8250124;28;20058;-94
2023/09/09 05:47:25;;;;;;;10.98;7.38;;;;;;;;;;8238057;28;20137;-92
2023/09/09 05:51:35;;;;;;;11.38;6.55;;;;;;;;;;8246161;28;20031;-90
2023/09/09 05:55:54;;;;;;;9.80;6.00;;;;;;;;;;8251410;28;20138;-90
2023/09/09 06:04:49;;;;;;;9.95;5.72;;;;;;;;;;8248868;28;20059;-91
2023/09/09 06:08:55;;;;;;;8.60;5.43;;;;;;;;;;8247965;28;20055;-92
2023/09/09 06:13:00;;;;;;;12.30;5.78;;;;;;;;;;8248458;28;20050;-92
2023/09/09 06:17:05;;;;;;;12.35;7.18;;;;;;;;;;8245156;28;20051;-90
2023/09/09 06:21:14;;;;;;;9.05;5.45;;;;;;;;;;8257566;28;20129;-89
2023/09/09 06:25:27;;;;;;;7.80;5.03;;;;;;;;;;8233866;28;20035;-90
2023/09/09 06:30:20;;;;;;;12.02;6.03;;;;;;;;;;8199674;28;20039;-90
2023/09/09 06:39:07;;;;;;;9.70;7.25;;;;;;;;;;8252447;28;20062;-91
2023/09/09 06:43:21;;;;;;;7.68;5.15;;;;;;;;;;8182679;28;20094;-90
2023/09/09 06:47:49;;;;;;;8.50;4.93;;;;;;;;;;8240886;28;20067;-89
2023/09/09 06:52:22;;;;;;;7.38;4.47;;;;;;;;;;8242716;28;20055;-89
2023/09/09 07:01:08;;;;;;;10.60;5.38;;;;;;;;;;8245267;28;20065;-91
2023/09/09 07:05:52;;;;;;;7.93;5.03;;;;;;;;;;8244104;28;20035;-88
2023/09/09 07:10:17;;;;;;;9.60;5.25;;;;;;;;;;8256487;28;20058;-92
2023/09/09 07:14:21;;;;;;;8.48;5.03;;;;;;;;;;8250912;28;20062;-91
2023/09/09 07:18:27;;;;;;;6.00;4.40;;;;;;;;;;8233248;28;20051;-90
2023/09/09 07:22:31;;;;;;;7.25;4.78;;;;;;;;;;8259148;28;20119;-89
2023/09/09 07:26:38;;;;;;;6.78;4.15;;;;;;;;;;8239696;28;20083;-90
2023/09/09 07:30:41;;;;;;;8.82;4.38;;;;;;;;;;8254563;28;20066;-89
2023/09/09 07:34:46;;;;;;;12.27;5.72;;;;;;;;;;8230914;28;20058;-96
2023/09/09 07:38:51;;;;;;;12.80;5.75;;;;;;;;;;8238532;28;20042;-93
2023/09/09 07:57:43;;;;;;;12.27;5.93;;;;;;;;;;8403358;27;1610995;-90
2023/09/09 08:01:46;;;;;;;14.77;6.72;;;;;;;;;;8423397;28;20500;-90
2023/09/09 08:06:04;;;;;;;13.75;6.88;;;;;;;;;;8403581;28;20047;-90
2023/09/09 08:10:40;;;;;;;16.17;6.88;;;;;;;;;;8409161;28;20056;-92
2023/09/09 08:15:04;;;;;;;15.10;6.53;;;;;;;;;;8404148;28;20119;-90
2023/09/09 08:19:08;;;;;;;21.85;7.65;;;;;;;;;;8389500;28;20106;-90
2023/09/09 08:23:12;;;;;;;12.02;6.22;;;;;;;;;;8388564;28;20055;-90
2023/09/09 08:27:15;;;;;;;12.30;6.15;;;;;;;;;;8393869;28;20045;-89
2023/09/09 08:31:22;;;;;;;13.10;6.20;;;;;;;;;;8412097;28;20402;-89
2023/09/09 08:35:25;;;;;;;11.68;5.47;;;;;;;;;;8402974;28;20073;-87
2023/09/09 08:39:29;;;;;;;14.57;5.63;;;;;;;;;;8394056;28;20048;-87
2023/09/09 08:43:41;;;;;;;11.52;5.85;;;;;;;;;;8422111;28;20102;-88
2023/09/09 08:47:56;;;;;;;12.20;5.13;;;;;;;;;;8392177;28;20044;-91
2023/09/09 08:52:29;;;;;;;11.02;5.38;;;;;;;;;;8395262;28;20071;-88
2023/09/09 08:56:34;;;;;;;7.70;4.78;;;;;;;;;;8384808;23;20060;-88
2023/09/09 09:00:39;;;;;;;10.65;5.18;;;;;;;;;;8354469;28;20067;-89
2023/09/09 09:04:44;;;;;;;9.30;5.13;;;;;;;;;;8357654;28;20683;-90
2023/09/09 09:08:49;;;;;;;8.65;5.05;;;;;;;;;;8347444;28;20053;-89
2023/09/09 09:12:54;;;;;;;8.88;4.75;;;;;;;;;;8352142;28;20060;-90
2023/09/09 09:16:58;;;;;;;8.93;5.20;;;;;;;;;;8350266;28;20049;-89
2023/09/09 09:21:12;;;;;;;9.30;5.10;;;;;;;;;;8349216;28;20171;-89
2023/09/09 09:25:21;;;;;;;12.15;5.35;;;;;;;;;;8356797;28;20576;-90
2023/09/09 09:29:24;;;;;;;7.30;5.13;;;;;;;;;;8347631;28;20057;-89
2023/09/09 09:33:27;;;;;;;9.35;5.20;;;;;;;;;;8343282;28;20090;-89
2023/09/09 09:37:31;;;;;;;10.48;5.10;;;;;;;;;;8358976;28;20049;-89
2023/09/09 09:41:34;;;;;;;11.30;5.47;;;;;;;;;;8349653;28;20550;-88
2023/09/09 09:45:37;;;;;;;8.40;5.07;;;;;;;;;;8357991;28;20405;-89
2023/09/09 09:49:43;;;;;;;11.35;5.38;;;;;;;;;;8341557;28;20107;-89
2023/09/09 09:53:54;;;;;;;6.45;5.10;;;;;;;;;;8347674;28;20065;-90
2023/09/09 09:57:59;;;;;;;9.30;5.68;;;;;;;;;;8354506;28;20076;-89
2023/09/09 10:02:03;;;;;;;8.15;5.20;;;;;;;;;;8356850;28;20049;-88
2023/09/09 10:06:07;;;;;;;7.88;5.13;;;;;;;;;;8339268;28;20044;-88
2023/09/09 10:10:14;;;;;;;10.55;5.40;;;;;;;;;;8344611;28;20107;-88
2023/09/09 10:14:20;;;;;;;7.50;5.10;;;;;;;;;;8349426;28;20047;-89
2023/09/09 10:18:24;;;;;;;8.02;5.15;;;;;;;;;;8353243;28;20132;-89
2023/09/09 10:22:28;;;;;;;9.35;6.28;;;;;;;;;;8345384;28;20452;-89
2023/09/09 10:26:33;;;;;;;11.93;6.68;;;;;;;;;;8350307;28;20045;-90
2023/09/09 10:30:37;;;;;;;12.50;6.55;;;;;;;;;;8348579;28;20152;-90
2023/09/09 10:34:41;;;;;;;8.35;4.78;;;;;;;;;;8347196;28;20132;-90
2023/09/09 10:38:45;;;;;;;9.65;5.40;;;;;;;;;;8345100;28;20050;-90
2023/09/09 10:47:09;;;;;;;9.02;4.90;;;;;;;;;;8379377;23;20080;-88
2023/09/09 10:51:29;;;;;;;10.20;4.55;;;;;;;;;;8348308;28;20052;-87
2023/09/09 10:55:32;;;;;;;8.80;5.03;;;;;;;;;;8342559;28;20056;-88
2023/09/09 10:59:35;;;;;;;9.57;7.50;;;;;;;;;;8348332;28;20055;-89
2023/09/09 11:03:47;;;;;;;7.10;5.10;;;;;;;;;;8341194;28;20049;-88
2023/09/09 11:07:50;;;;;;;7.60;4.60;;;;;;;;;;8359040;28;20040;-90
2023/09/09 11:11:57;;;;;;;7.95;4.78;;;;;;;;;;8363634;28;20049;-89
2023/09/09 11:16:01;;;;;;;7.97;4.80;;;;;;;;;;8324149;28;20089;-89
2023/09/09 11:20:10;;;;;;;7.82;4.60;;;;;;;;;;8342853;28;20560;-90
2023/09/09 11:24:14;;;;;;;8.47;4.60;;;;;;;;;;8355105;28;20135;-89
2023/09/09 11:28:18;;;;;;;8.30;4.60;;;;;;;;;;8339003;28;20088;-89
2023/09/09 11:32:25;;;;;;;6.38;4.47;;;;;;;;;;8355970;28;20057;-89
2023/09/09 11:36:38;;;;;;;6.70;4.88;;;;;;;;;;8334072;28;20056;-89
2023/09/09 11:40:44;;;;;;;;;;;;;;;;;;8319958;28;20139;-89
2023/09/09 11:44:55;;;;;;;15.15;5.22;;;;;;;;;;8356093;28;19931;-89
2023/09/09 11:49:12;;;;;;;9.43;5.25;;;;;;;;;;8398328;28;20053;-88
2023/09/09 11:53:23;;;;;;;8.02;4.90;;;;;;;;;;8348618;28;20040;-88
2023/09/09 11:57:26;;;;;;;7.10;5.32;;;;;;;;;;8426271;28;20043;-89
2023/09/09 12:01:29;;;;;;;8.13;5.20;;;;;;;;;;8425459;28;20028;-89
2023/09/09 12:05:32;;;;;;;7.30;5.22;;;;;;;;;;8419900;28;20119;-89
2023/09/09 12:09:37;;;;;;;8.68;5.18;;;;;;;;;;8399128;28;20043;-88
2023/09/09 12:13:40;;;;;;;12.20;5.30;;;;;;;;;;8406431;28;20131;-88
2023/09/09 12:17:43;;;;;;;7.05;5.25;;;;;;;;;;8401967;28;20041;-89
2023/09/09 12:21:48;;;;;;;7.75;5.05;;;;;;;;;;8383802;28;20079;-88
2023/09/09 12:25:53;;;;;;;9.80;5.18;;;;;;;;;;8386563;28;20045;-88
2023/09/09 12:29:57;;;;;;;8.10;5.28;;;;;;;;;;8365278;28;20064;-88
2023/09/09 12:33:59;;;;;;;8.32;5.28;;;;;;;;;;8389894;28;20087;-88
2023/09/09 12:38:03;;;;;;;7.93;5.00;;;;;;;;;;8377120;28;20449;-89
2023/09/09 12:42:08;;;;;;;7.22;5.20;;;;;;;;;;8391533;28;20049;-89
2023/09/09 12:46:15;;;;;;;11.55;5.30;;;;;;;;;;8391679;28;20189;-89
2023/09/09 12:50:18;;;;;;;6.85;4.82;;;;;;;;;;8423844;28;20052;-89
2023/09/09 12:54:21;;;;;;;8.05;4.90;;;;;;;;;;8426347;28;20446;-90
2023/09/09 12:58:26;;;;;;;7.50;5.82;;;;;;;;;;8424885;28;20119;-89
2023/09/09 13:02:28;;;;;;;7.00;4.60;;;;;;;;;;8411772;28;20056;-89
2023/09/09 13:06:32;;;;;;;7.10;5.15;;;;;;;;;;8408919;28;20056;-89
2023/09/09 13:10:35;;;;;;;8.93;4.97;;;;;;;;;;8409923;28;20060;-89
2023/09/09 13:14:40;;;;;;;7.45;5.20;;;;;;;;;;8429425;28;20523;-89
2023/09/09 13:18:43;;;;;;;8.10;5.40;;;;;;;;;;8413344;28;20396;-88
2023/09/09 13:22:46;;;;;;;8.35;5.78;;;;;;;;;;8393033;28;20044;-89
2023/09/09 13:26:50;;;;;;;8.38;5.53;;;;;;;;;;8406009;28;20045;-88
2023/09/09 13:30:54;;;;;;;7.28;5.45;;;;;;;;;;8405427;28;20149;-89
2023/09/09 13:34:57;;;;;;;8.93;5.35;;;;;;;;;;8412735;28;20048;-89
2023/09/09 13:39:01;;;;;;;7.38;5.40;;;;;;;;;;8409969;28;20500;-89
2023/09/09 13:43:09;;;;;;;7.90;5.28;;;;;;;;;;8404828;28;20135;-89
2023/09/09 13:47:15;;;;;;;9.93;5.50;;;;;;;;;;8436699;28;20440;-89
2023/09/09 13:51:18;;;;;;;7.85;5.28;;;;;;;;;;8407735;28;20048;-89
2023/09/09 13:55:21;;;;;;;9.98;6.47;;;;;;;;;;8414507;28;20078;-89
2023/09/09 13:59:24;;;;;;;12.18;6.40;;;;;;;;;;8422258;28;20499;-89
2023/09/09 14:03:29;;;;;;;11.15;5.65;;;;;;;;;;8403660;28;20044;-89
2023/09/09 14:07:33;;;;;;;6.75;5.82;;;;;;;;;;8427395;28;20040;-89
2023/09/09 14:11:36;;;;;;;7.88;6.07;;;;;;;;;;8420767;28;20054;-89
2023/09/09 14:15:38;;;;;;;12.52;5.65;;;;;;;;;;8417573;28;20048;-88
2023/09/09 14:19:45;;;;;;;11.75;6.20;;;;;;;;;;8420037;28;20393;-88
2023/09/09 14:23:49;;;;;;;16.90;7.85;;;;;;;;;;8401678;28;20055;-89
2023/09/09 14:27:52;;;;;;;12.88;6.55;;;;;;;;;;8404867;28;20545;-89
2023/09/09 14:31:55;;;;;;;10.13;5.50;;;;;;;;;;8392247;28;20597;-89
2023/09/09 14:36:00;;;;;;;9.75;6.35;;;;;;;;;;8398180;28;20090;-90
2023/09/09 14:40:04;;;;;;;9.60;6.00;;;;;;;;;;8422338;28;20468;-89
2023/09/09 14:44:07;;;;;;;7.55;5.60;;;;;;;;;;8380543;28;20519;-90
2023/09/09 14:48:13;;;;;;;10.55;6.55;;;;;;;;;;8424528;28;20047;-89
2023/09/09 14:52:18;;;;;;;8.35;5.97;;;;;;;;;;8417025;28;20047;-90
2023/09/09 14:56:21;;;;;;;11.15;5.60;;;;;;;;;;8420148;28;20052;-90
2023/09/09 15:00:24;;;;;;;9.25;6.25;;;;;;;;;;8418975;28;20055;-89
2023/09/09 15:04:28;;;;;;;11.50;5.88;;;;;;;;;;8393190;28;20048;-89
2023/09/09 15:08:35;;;;;;;8.15;6.28;;;;;;;;;;8390810;28;20055;-89
2023/09/09 15:12:39;;;;;;;7.63;5.90;;;;;;;;;;8397677;28;20550;-89
2023/09/09 15:16:46;;;;;;;6.97;5.57;;;;;;;;;;8403019;28;20087;-89
2023/09/09 15:20:49;;;;;;;7.10;5.35;;;;;;;;;;8420616;28;20123;-90
2023/09/09 15:24:53;;;;;;;10.88;6.00;;;;;;;;;;8418813;28;20047;-91
2023/09/09 15:28:57;;;;;;;8.18;6.20;;;;;;;;;;8415291;28;20052;-90
2023/09/09 15:33:00;;;;;;;8.45;6.03;;;;;;;;;;8419098;28;20551;-89
2023/09/09 15:37:03;;;;;;;9.25;5.53;;;;;;;;;;8393068;28;20085;-90
2023/09/09 15:41:08;;;;;;;8.27;6.25;;;;;;;;;;8406479;28;20063;-90
2023/09/09 15:45:11;;;;;;;8.48;6.53;;;;;;;;;;8410613;28;20482;-90
2023/09/09 15:49:16;;;;;;;7.25;5.72;;;;;;;;;;8398807;28;20143;-90
2023/09/09 15:53:19;;;;;;;8.80;6.07;;;;;;;;;;8425814;28;20047;-90
2023/09/09 15:57:24;;;;;;;8.88;6.15;;;;;;;;;;8400768;28;20131;-91
2023/09/09 16:01:27;;;;;;;9.23;6.95;;;;;;;;;;8416026;28;20550;-90
2023/09/09 16:05:34;;;;;;;11.18;7.00;;;;;;;;;;8417556;28;20048;-90
2023/09/09 16:09:38;;;;;;;9.65;7.75;;;;;;;;;;8429372;28;20083;-89
2023/09/09 16:13:53;;;;;;;12.20;8.25;;;;;;;;;;8394406;28;20190;-89
2023/09/09 16:17:57;;;;;;;13.73;8.90;;;;;;;;;;8399192;28;20411;-89
2023/09/09 16:22:03;;;;;;;13.88;9.55;;;;;;;;;;8425226;28;20113;-89
2023/09/09 16:26:07;;;;;;;20.17;11.57;;;;;;;;;;8406294;28;20048;-90
2023/09/09 16:30:12;;;;;;;27.33;17.63;;;;;;;;;;8411260;28;20055;-90
2023/09/09 16:34:15;;;;;;;35.53;19.58;;;;;;;;;;8412484;28;20158;-90
2023/09/09 16:38:18;;;;;;;34.78;21.65;;;;;;;;;;8424078;28;20052;-88
2023/09/09 16:42:22;;;;;;;33.35;19.40;;;;;;;;;;8403785;28;20560;-89
2023/09/09 16:46:29;;;;;;;30.88;17.60;;;;;;;;;;8424676;28;20241;-90
2023/09/09 16:50:36;;;;;;;29.50;17.65;;;;;;;;;;8413775;28;20500;-89
2023/09/09 16:54:39;;;;;;;22.90;15.45;;;;;;;;;;8414378;28;20072;-90
2023/09/09 16:58:41;;;;;;;19.08;14.10;;;;;;;;;;8421520;28;20056;-89
2023/09/09 17:02:46;;;;;;;32.35;13.52;;;;;;;;;;8414347;28;20094;-89
2023/09/09 17:06:49;;;;;;;16.23;12.15;;;;;;;;;;8417447;28;20052;-90
2023/09/09 17:10:52;;;;;;;16.67;12.68;;;;;;;;;;8418225;28;20055;-90
2023/09/09 17:14:55;;;;;;;19.38;14.65;;;;;;;;;;8365449;23;20054;-91
2023/09/09 17:19:01;;;;;;;17.80;14.45;;;;;;;;;;8344608;28;20390;-90
2023/09/09 17:23:05;;;;;;;31.90;23.30;;;;;;;;;;8334814;28;20079;-91
2023/09/09 17:27:08;;;;;;;36.70;24.25;;;;;;;;;;8352813;22;20055;-91
2023/09/09 17:31:11;;;;;;;33.17;23.83;;;;;;;;;;8417575;28;20056;-90
2023/09/09 17:35:16;;;;;;;19.85;15.52;;;;;;;;;;8427932;22;20419;-91
2023/09/09 17:39:22;;;;;;;17.70;13.73;;;;;;;;;;8396766;28;20089;-91
2023/09/09 17:43:25;;;;;;;16.75;13.05;;;;;;;;;;8397464;28;20110;-89
2023/09/09 17:47:31;;;;;;;26.42;15.40;;;;;;;;;;8407369;28;20062;-90
2023/09/09 17:51:38;;;;;;;18.45;14.70;;;;;;;;;;8412804;28;20167;-91
2023/09/09 17:55:44;;;;;;;17.33;14.85;;;;;;;;;;8418768;28;20050;-91
2023/09/09 17:59:47;;;;;;;15.93;13.85;;;;;;;;;;8437372;28;20086;-90
2023/09/09 18:03:53;;;;;;;20.33;16.23;;;;;;;;;;8406719;28;20047;-91
2023/09/09 18:08:00;;;;;;;33.75;23.35;;;;;;;;;;8405562;28;20052;-92
2023/09/09 18:12:04;;;;;;;36.25;23.50;;;;;;;;;;8404631;28;20483;-90
2023/09/09 18:16:08;;;;;;;80.68;48.80;;;;;;;;;;8433357;28;20536;-91
2023/09/09 18:20:11;;;;;;;88.90;50.63;;;;;;;;;;8425961;28;20044;-90
2023/09/09 18:24:19;;;;;;;97.38;56.88;;;;;;;;;;8418908;28;20047;-91
2023/09/09 18:28:24;;;;;;;72.57;47.03;;;;;;;;;;8406604;28;20134;-90
2023/09/09 18:32:28;;;;;;;51.50;33.67;;;;;;;;;;8410044;28;20400;-91
2023/09/09 18:36:32;;;;;;;36.92;27.48;;;;;;;;;;8417369;28;20056;-92
2023/09/09 18:40:40;;;;;;;27.50;18.98;;;;;;;;;;8425161;28;20135;-91
2023/09/09 18:44:45;;;;;;;30.23;19.52;;;;;;;;;;8405664;28;20053;-91
2023/09/09 18:59:40;;;;;;;39.45;27.77;;;;;;;;;;8308030;28;20090;-91
2023/09/09 19:03:58;;;;;;;53.45;35.17;;;;;;;;;;8331474;28;20041;-93
2023/09/09 19:08:06;;;;;;;33.60;21.92;;;;;;;;;;8304192;28;20461;-93
2023/09/09 19:12:28;;;;;;;71.30;34.45;;;;;;;;;;8334897;28;20124;-93
2023/09/09 19:16:35;;;;;;;35.75;25.15;;;;;;;;;;8383967;23;20139;-93
2023/09/09 19:20:40;;;;;;;29.63;22.20;;;;;;;;;;8322396;28;20123;-93
2023/09/09 19:24:45;;;;;;;31.10;21.83;;;;;;;;;;8329531;28;20049;-92
2023/09/09 19:28:50;;;;;;;39.53;23.23;;;;;;;;;;8314070;28;20053;-93
2023/09/09 19:32:58;;;;;;;34.30;23.80;;;;;;;;;;8293052;28;20052;-92
2023/09/09 19:37:02;;;;;;;55.97;35.38;;;;;;;;;;8331443;28;20045;-92
2023/09/09 19:41:08;;;;;;;40.13;27.98;;;;;;;;;;8331297;28;20137;-92
2023/09/09 19:49:54;;;;;;;51.23;32.60;;;;;;;;;;8300362;28;20049;-92
2023/09/09 19:54:20;;;;;;;44.17;29.23;;;;;;;;;;8318590;28;20619;-93
2023/09/09 19:58:24;;;;;;;41.88;28.25;;;;;;;;;;8330507;28;20065;-91
2023/09/09 20:02:28;;;;;;;34.88;25.65;;;;;;;;;;8330515;28;20386;-92
2023/09/09 20:06:35;;;;;;;48.88;31.58;;;;;;;;;;8330589;28;20079;-92
2023/09/09 20:10:40;;;;;;;40.47;27.17;;;;;;;;;;8313834;28;20049;-92
2023/09/09 20:14:44;;;;;;;36.85;25.40;;;;;;;;;;8304247;28;20058;-92
2023/09/09 20:18:47;;;;;;;39.92;25.25;;;;;;;;;;8313203;28;20125;-92
2023/09/09 20:22:52;;;;;;;35.38;25.27;;;;;;;;;;8331067;28;20045;-91
2023/09/09 20:26:57;;;;;;;36.60;25.30;;;;;;;;;;8313754;28;20049;-92
2023/09/09 20:31:01;;;;;;;33.10;23.92;;;;;;;;;;8331223;28;20092;-93
2023/09/09 20:35:06;;;;;;;34.45;23.58;;;;;;;;;;8330914;28;20062;-92
2023/09/09 20:39:11;;;;;;;39.97;25.98;;;;;;;;;;8313842;28;20126;-92
2023/09/09 20:43:19;;;;;;;37.10;24.58;;;;;;;;;;8331089;28;20064;-93
2023/09/09 20:47:45;;;;;;;54.20;30.67;;;;;;;;;;8331402;28;20045;-93
2023/09/09 20:51:53;;;;;;;46.13;25.80;;;;;;;;;;8331898;28;20104;-93
2023/09/09 20:56:08;;;;;;;42.17;26.83;;;;;;;;;;8319651;28;20053;-92
2023/09/09 21:00:23;;;;;;;;;;;;;;;;;;;;;
2023/09/09 21:04:32;;;;;;;45.05;29.02;;;;;;;;;;8336688;28;20132;-92
2023/09/09 21:08:56;;;;;;;52.78;31.08;;;;;;;;;;8335767;28;20128;-93
2023/09/09 21:13:15;;;;;;;38.88;26.40;;;;;;;;;;8336652;28;20254;-92
2023/09/09 21:17:27;;;;;;;41.53;27.73;;;;;;;;;;8325833;28;20060;-94
2023/09/09 21:21:30;;;;;;;41.65;28.02;;;;;;;;;;8309871;28;20481;-94
2023/09/09 21:26:08;;;;;;;40.88;26.88;;;;;;;;;;8336041;28;20524;-94
2023/09/09 21:30:22;;;;;;;45.58;28.00;;;;;;;;;;8327873;28;20204;-93
2023/09/09 21:34:41;;;;;;;39.00;25.77;;;;;;;;;;8322181;28;20053;-93
2023/09/09 21:38:45;;;;;;;38.22;25.80;;;;;;;;;;8343493;28;20095;-93
2023/09/09 21:42:50;;;;;;;35.03;25.60;;;;;;;;;;8335080;28;20103;-94
2023/09/09 21:46:53;;;;;;;46.33;28.88;;;;;;;;;;8325857;28;20116;-93
2023/09/09 21:50:59;;;;;;;50.60;29.40;;;;;;;;;;8321463;28;20045;-93
2023/09/09 21:55:06;;;;;;;53.38;29.58;;;;;;;;;;8304869;28;20057;-91
2023/09/09 21:59:10;;;;;;;45.25;26.05;;;;;;;;;;8322155;28;20072;-93
2023/09/09 22:03:13;;;;;;;46.08;28.40;;;;;;;;;;8334775;28;20103;-94
2023/09/09 22:07:22;;;;;;;44.03;27.67;;;;;;;;;;8335213;28;20132;-92
2023/09/09 22:11:34;;;;;;;42.50;27.58;;;;;;;;;;8336091;28;20042;-93
2023/09/09 22:21:59;;;;;;;51.25;30.08;;;;;;;;;;8338882;28;20516;-94
2023/09/09 22:26:59;;;;;;;45.92;27.08;;;;;;;;;;8322886;28;20421;-93
2023/09/09 22:31:16;;;;;;;36.35;23.63;;;;;;;;;;8320986;28;20046;-94
2023/09/09 22:35:24;;;;;;;40.90;25.95;;;;;;;;;;8351043;23;20418;-95
2023/09/09 22:39:51;;;;;;;36.60;23.92;;;;;;;;;;8283804;28;20096;-94
2023/09/09 22:44:05;;;;;;;39.83;27.40;;;;;;;;;;8318416;28;20052;-95
2023/09/09 22:48:27;;;;;;;40.70;26.73;;;;;;;;;;8315489;28;20617;-94
2023/09/09 22:58:26;;;;;;;42.90;28.33;;;;;;;;;;8294168;28;20095;-94
2023/09/09 23:08:05;;;;;;;45.80;27.73;;;;;;;;;;8340681;23;20069;-94
2023/09/09 23:12:27;;;;;;;46.38;27.17;;;;;;;;;;8306408;28;20083;-94
2023/09/09 23:20:56;;;;;;;41.35;26.98;;;;;;;;;;8331894;28;20061;-94
2023/09/09 23:25:11;;;;;;;49.38;28.17;;;;;;;;;;8316076;28;20136;-93
2023/09/09 23:29:17;;;;;;;45.60;27.33;;;;;;;;;;8324108;28;20042;-92
2023/09/09 23:33:19;;;;;;;60.97;33.45;;;;;;;;;;8317218;28;20897;-94
2023/09/09 23:37:23;;;;;;;55.03;30.17;;;;;;;;;;8345630;28;20040;-92
2023/09/09 23:41:41;;;;;;;74.63;39.53;;;;;;;;;;8356431;28;20037;-94
2023/09/09 23:45:46;;;;;;;53.15;30.48;;;;;;;;;;8356118;28;20552;-94
2023/09/09 23:49:49;;;;;;;69.43;32.95;;;;;;;;;;8351237;28;20064;-93
2023/09/09 23:53:53;;;;;;;54.38;31.35;;;;;;;;;;8364577;28;20049;-94
